Time;durP1;ratioP1;P1;durP2;ratioP2;P2;SDS_P1;SDS_P2;PMS_P1;PMS_P2;Temp;Humidity;BMP_temperature;BMP_pressure;BME280_temperature;BME280_humidity;BME280_pressure;Samples;Min_cycle;Max_cycle;Signal;HPM_P1;HPM_P2
2022/09/10 00:00:59;;;;;;;3.20;2.65;;;;;;;23.88;64.70;101347.69;5091444;28;19919;-82
2022/09/10 00:03:25;;;;;;;;;;;;;;;23.89;64.67;101341.47;5094862;28;20122;-82
2022/09/10 00:05:51;;;;;;;3.08;2.83;;;;;;;23.78;64.62;101333.38;5093525;28;19954;-82
2022/09/10 00:08:33;;;;;;;3.30;3.00;;;;;;;23.83;64.66;101347.63;5093157;28;20032;-81
2022/09/10 00:11:06;;;;;;;3.88;3.22;;;;;;;23.87;64.81;101353.91;5098070;28;20043;-82
2022/09/10 00:13:32;;;;;;;3.03;2.72;;;;;;;23.85;64.66;101342.31;5078832;28;20007;-83
2022/09/10 00:16:01;;;;;;;3.10;2.90;;;;;;;23.74;64.52;101321.75;5119079;28;20035;-83
2022/09/10 00:18:27;;;;;;;3.13;2.88;;;;;;;23.77;64.65;101329.84;5097573;28;20047;-82
2022/09/10 00:20:53;;;;;;;;;;;;;;;23.89;64.72;101342.34;5089012;28;20024;-81
2022/09/10 00:23:22;;;;;;;3.40;2.80;;;;;;;23.86;64.65;101333.47;5093284;28;20312;-81
2022/09/10 00:25:50;;;;;;;4.32;2.67;;;;;;;23.84;64.34;101337.88;5093777;28;20278;-80
2022/09/10 00:28:16;;;;;;;3.58;3.17;;;;;;;23.81;64.52;101335.19;5094487;28;20168;-82
2022/09/10 00:30:43;;;;;;;;;;;;;;;23.90;64.49;101346.81;5092133;28;20055;-82
2022/09/10 00:33:09;;;;;;;4.30;2.80;;;;;;;23.74;64.52;101326.19;5109625;27;19915;-82
2022/09/10 00:35:35;;;;;;;2.83;2.53;;;;;;;23.89;64.53;101347.69;5092806;28;20099;-82
2022/09/10 00:38:01;;;;;;;3.22;2.92;;;;;;;23.88;64.48;101351.25;5073490;28;20028;-82
2022/09/10 00:40:26;;;;;;;;;;;;;;;23.90;64.34;101346.81;5091097;28;20055;-81
2022/09/10 00:42:52;;;;;;;3.00;2.80;;;;;;;23.75;64.63;101328.88;5127525;27;19923;-83
2022/09/10 00:45:20;;;;;;;3.30;2.95;;;;;;;23.45;64.68;101272.59;5092234;28;20552;-82
2022/09/10 00:47:49;;;;;;;2.85;2.60;;;;;;;23.88;64.48;101345.91;5094136;28;20042;-81
2022/09/10 00:50:17;;;;;;;2.72;2.53;;;;;;;23.82;64.41;101331.66;5090826;28;20027;-83
2022/09/10 00:52:43;;;;;;;2.78;2.58;;;;;;;23.78;64.48;101314.72;5092550;28;20028;-83
2022/09/10 00:55:08;;;;;;;;;;;;;;;23.92;64.14;101330.84;5091531;28;20107;-82
2022/09/10 00:57:34;;;;;;;2.90;2.70;;;;;;;23.84;64.30;101328.09;5092295;28;19999;-82
2022/09/10 01:00:02;;;;;;;;;;;;;;;23.91;64.28;101335.25;5091380;28;20057;-82
2022/09/10 01:02:28;;;;;;;2.85;2.65;;;;;;;23.88;64.33;101324.59;5090397;28;19961;-83
2022/09/10 01:04:54;;;;;;;;;;;;;;;23.91;64.25;101321.91;5095646;28;20477;-84
2022/09/10 01:07:20;;;;;;;2.53;2.33;;;;;;;23.89;64.25;101322.81;5090844;28;19912;-84
2022/09/10 01:09:45;;;;;;;;;;;;;;;23.90;64.33;101316.59;5088528;28;20077;-83
2022/09/10 01:12:41;;;;;;;2.88;2.58;;;;;;;23.76;64.46;101287.13;5088981;28;19911;-83
2022/09/10 01:15:34;;;;;;;3.05;2.70;;;;;;;23.86;64.46;101307.66;5091849;28;20073;-83
2022/09/10 01:18:27;;;;;;;2.65;2.45;;;;;;;23.78;64.33;101288.03;5080986;28;20067;-83
2022/09/10 01:21:03;;;;;;;2.60;2.40;;;;;;;23.88;64.44;101297.03;5094064;28;20093;-84
2022/09/10 01:23:57;;;;;;;2.75;2.55;;;;;;;23.86;64.66;101309.44;5094788;28;20028;-84
2022/09/10 01:26:29;;;;;;;3.28;2.88;;;;;;;23.66;64.52;101266.56;5089036;28;20043;-82
2022/09/10 01:29:08;;;;;;;2.63;2.42;;;;;;;23.89;64.43;101304.13;5095873;28;20046;-83
2022/09/10 01:31:39;;;;;;;2.55;2.35;;;;;;;23.85;64.38;101302.31;5074695;28;20024;-83
2022/09/10 01:34:09;;;;;;;2.90;2.53;;;;;;;23.56;64.29;101253.19;5092881;28;20040;-84
2022/09/10 01:36:37;;;;;;;2.60;2.40;;;;;;;23.84;64.50;101293.44;5091813;28;20400;-83
2022/09/10 01:39:03;;;;;;;3.00;2.80;;;;;;;23.74;64.45;101276.41;5092731;28;20103;-83
2022/09/10 01:41:29;;;;;;;;;;;;;;;23.91;64.40;101297.03;5090254;28;20043;-81
2022/09/10 01:43:55;;;;;;;2.67;2.47;;;;;;;23.87;64.42;101289.88;5094804;28;20385;-82
2022/09/10 01:46:40;;;;;;;;;;;;;;;23.92;64.41;101290.84;5094645;28;20031;-82
2022/09/10 01:49:44;;;;;;;2.90;2.67;;;;;;;23.87;64.21;101296.09;5086787;28;19943;-83
2022/09/10 01:52:57;;;;;;;3.00;2.70;;;;;;;23.83;64.55;101288.97;5039965;28;20040;-83
2022/09/10 01:55:31;;;;;;;2.90;2.65;;;;;;;23.86;64.42;101281.00;5088170;28;20036;-82
2022/09/10 01:58:21;;;;;;;2.85;2.60;;;;;;;23.84;64.44;101285.44;5091066;28;20055;-82
2022/09/10 02:00:54;;;;;;;2.88;2.60;;;;;;;23.82;64.47;101284.53;5093077;28;20039;-83
2022/09/10 02:03:22;;;;;;;2.75;2.50;;;;;;;23.87;64.56;101295.22;5091677;28;20012;-82
2022/09/10 02:05:49;;;;;;;2.58;2.38;;;;;;;23.88;64.44;101289.91;5080336;28;20485;-82
2022/09/10 02:08:19;;;;;;;2.83;2.60;;;;;;;23.86;64.34;101294.34;5090486;28;20413;-81
2022/09/10 02:11:05;;;;;;;3.10;2.55;;;;;;;23.76;64.45;101269.34;5090578;28;20022;-82
2022/09/10 02:13:31;;;;;;;2.70;2.50;;;;;;;23.88;64.28;101286.34;5080801;28;20038;-82
2022/09/10 02:15:58;;;;;;;2.88;2.50;;;;;;;23.84;64.28;101273.88;5089212;28;20050;-82
2022/09/10 02:18:24;;;;;;;2.85;2.65;;;;;;;23.87;64.40;101280.09;5088698;28;20028;-84
2022/09/10 02:20:50;;;;;;;;;;;;;;;23.91;64.31;101281.91;5087356;28;20036;-84
2022/09/10 02:23:20;;;;;;;3.35;2.63;;;;;;;23.81;64.36;101263.16;5082529;28;19946;-83
2022/09/10 02:25:48;;;;;;;2.60;2.40;;;;;;;23.83;64.51;101272.06;5089991;28;20038;-84
2022/09/10 02:28:14;;;;;;;2.42;2.22;;;;;;;23.87;64.60;101290.78;5091140;28;20020;-83
2022/09/10 02:30:39;;;;;;;2.58;2.38;;;;;;;23.80;64.56;101275.63;5092797;28;20027;-83
2022/09/10 02:33:05;;;;;;;;;;;;;;;23.91;64.22;101276.56;5088470;28;20052;-83
2022/09/10 02:35:30;;;;;;;2.70;2.50;;;;;;;23.83;64.47;101267.63;5088938;28;19915;-84
2022/09/10 02:37:57;;;;;;;;;;;;;;;23.91;64.33;101279.25;5076818;28;20536;-83
2022/09/10 02:40:24;;;;;;;2.97;2.67;;;;;;;23.68;64.49;101243.47;5092813;28;19915;-83
2022/09/10 02:42:50;;;;;;;3.53;2.63;;;;;;;23.84;64.44;101274.75;5090928;28;20024;-83
2022/09/10 02:45:15;;;;;;;;;;;;;;;23.91;64.40;101283.69;5089550;28;20401;-83
2022/09/10 02:47:41;;;;;;;4.20;2.50;;;;;;;23.77;64.48;101259.59;5092600;28;19916;-83
2022/09/10 02:50:07;;;;;;;;;;;;;;;23.91;64.44;101278.34;5089417;28;20104;-82
2022/09/10 02:52:33;;;;;;;2.72;2.53;;;;;;;23.77;64.64;101260.50;5091147;28;20012;-83
2022/09/10 02:54:59;;;;;;;;;;;;;;;23.90;64.38;101271.25;5087910;28;20484;-83
2022/09/10 02:57:25;;;;;;;2.60;2.38;;;;;;;23.73;64.35;101250.66;5088954;28;19974;-84
2022/09/10 02:59:52;;;;;;;3.45;2.63;;;;;;;23.76;64.37;101263.13;5092001;28;20040;-83
2022/09/10 03:02:19;;;;;;;3.05;2.83;;;;;;;23.87;64.49;101273.88;5090995;28;20020;-83
2022/09/10 03:04:45;;;;;;;2.55;2.33;;;;;;;23.87;64.38;101271.22;5092683;28;20039;-83
2022/09/10 03:07:11;;;;;;;;;;;;;;;23.91;64.39;101275.69;5089432;28;20497;-83
2022/09/10 03:09:39;;;;;;;2.55;2.35;;;;;;;23.70;64.44;101239.06;5093122;28;19927;-83
2022/09/10 03:12:06;;;;;;;2.70;2.50;;;;;;;23.75;64.39;101251.53;5092317;28;20032;-83
2022/09/10 03:14:33;;;;;;;2.25;2.15;;;;;;;23.86;64.41;101269.44;5089430;28;20024;-82
2022/09/10 03:16:59;;;;;;;2.83;2.50;;;;;;;23.75;64.54;101264.00;5093275;28;20058;-83
2022/09/10 03:19:24;;;;;;;;;;;;;;;23.91;64.15;101289.03;5095012;28;20507;-82
2022/09/10 03:21:50;;;;;;;2.72;2.50;;;;;;;23.84;64.58;101284.53;5092494;28;19912;-83
2022/09/10 03:24:16;;;;;;;3.03;2.83;;;;;;;23.86;64.40;101289.00;5096135;28;20071;-82
2022/09/10 03:26:43;;;;;;;;;;;;;;;23.90;64.40;101285.47;5093416;28;20054;-82
2022/09/10 03:29:09;;;;;;;2.80;2.60;;;;;;;23.88;64.46;101297.03;5094988;28;19923;-82
2022/09/10 03:31:35;;;;;;;;;;;;;;;23.90;64.45;101287.25;5093854;28;20031;-82
2022/09/10 03:34:00;;;;;;;2.75;2.55;;;;;;;23.88;64.52;101289.91;5092978;28;19939;-83
2022/09/10 03:36:30;;;;;;;;;;;;;;;23.89;64.45;101294.34;5093083;28;20493;-82
2022/09/10 03:38:57;;;;;;;2.60;2.40;;;;;;;23.87;64.47;101292.56;5109596;28;20396;-82
2022/09/10 03:41:25;;;;;;;2.80;2.55;;;;;;;23.86;64.38;101283.66;5093869;28;20110;-82
2022/09/10 03:43:53;;;;;;;2.63;2.40;;;;;;;23.81;64.57;101279.16;5092741;28;20024;-82
2022/09/10 03:46:18;;;;;;;2.67;2.47;;;;;;;23.65;64.41;101243.47;5103951;28;20115;-83
2022/09/10 03:48:44;;;;;;;;;;;;;;;23.90;64.14;101280.13;5095877;28;20054;-83
2022/09/10 03:51:10;;;;;;;2.40;2.20;;;;;;;23.75;64.36;101254.22;5093939;28;19920;-83
2022/09/10 03:53:37;;;;;;;3.00;2.38;;;;;;;23.69;64.44;101242.63;5093929;28;20504;-81
2022/09/10 03:56:03;;;;;;;2.60;2.40;;;;;;;23.87;64.50;101277.44;5093940;28;20047;-82
2022/09/10 03:58:28;;;;;;;;;;;;;;;23.91;64.46;101275.69;5092827;28;20030;-83
2022/09/10 04:00:54;;;;;;;2.60;2.40;;;;;;;23.88;64.35;101287.25;5093711;28;19927;-83
2022/09/10 04:03:19;;;;;;;;;;;;;;;23.90;64.16;101289.94;5100653;28;20044;-82
2022/09/10 04:05:45;;;;;;;2.50;2.30;;;;;;;23.84;64.39;101292.53;5093561;28;19908;-81
2022/09/10 04:08:12;;;;;;;2.58;2.38;;;;;;;23.86;64.35;101294.34;5093763;28;20489;-82
2022/09/10 04:10:39;;;;;;;2.33;2.17;;;;;;;23.88;64.44;101297.03;5093459;28;20043;-82
2022/09/10 04:13:04;;;;;;;2.55;2.35;;;;;;;23.86;64.18;101297.00;5086191;28;20556;-81
2022/09/10 04:15:30;;;;;;;;;;;;;;;23.91;64.35;101289.03;5093396;28;20138;-83
2022/09/10 04:17:56;;;;;;;2.72;2.53;;;;;;;23.88;64.52;101292.56;5085561;28;19919;-83
2022/09/10 04:20:22;;;;;;;;;;;;;;;23.90;64.36;101290.81;5095297;28;20027;-83
2022/09/10 04:22:50;;;;;;;2.60;2.40;;;;;;;23.80;64.47;101266.72;5090155;28;19923;-84
2022/09/10 04:25:17;;;;;;;2.75;2.55;;;;;;;23.85;64.48;101278.31;5089961;28;20077;-83
2022/09/10 04:27:43;;;;;;;2.50;2.30;;;;;;;23.66;64.40;101247.91;5081505;28;20050;-83
2022/09/10 04:30:09;;;;;;;2.30;2.20;;;;;;;23.87;64.46;101292.56;5091361;28;20036;-83
2022/09/10 04:32:35;;;;;;;2.70;2.50;;;;;;;23.81;64.32;101288.06;5092397;28;20524;-81
2022/09/10 04:35:01;;;;;;;;;;;;;;;23.91;64.30;101300.59;5091441;28;20049;-83
2022/09/10 04:37:27;;;;;;;2.65;2.40;;;;;;;23.80;64.26;101286.28;5091808;28;19919;-83
2022/09/10 04:39:53;;;;;;;2.75;2.55;;;;;;;23.84;64.32;101296.09;5091944;28;20051;-83
2022/09/10 04:42:19;;;;;;;;;;;;;;;23.90;64.29;101297.94;5092377;28;20070;-82
2022/09/10 04:44:45;;;;;;;2.63;2.42;;;;;;;23.85;64.31;101286.31;5089212;28;19916;-83
2022/09/10 04:47:11;;;;;;;2.70;2.50;;;;;;;23.87;64.42;101296.09;5078540;28;20486;-83
2022/09/10 04:49:37;;;;;;;;;;;;;;;23.90;64.34;101297.94;5073400;28;20031;-82
2022/09/10 04:52:02;;;;;;;3.15;2.85;;;;;;;23.72;64.46;101280.84;5081680;28;20051;-82
2022/09/10 04:54:28;;;;;;;;;;;;;;;23.89;64.48;101302.34;5078570;28;20069;-82
2022/09/10 04:56:53;;;;;;;2.30;2.10;;;;;;;23.84;64.72;101292.53;5092102;28;19991;-83
2022/09/10 04:59:20;;;;;;;;;;;;;;;23.90;64.65;101300.59;5092036;28;20028;-84
2022/09/10 05:01:49;;;;;;;2.50;2.30;;;;;;;23.87;64.34;101297.88;5073058;28;19916;-84
2022/09/10 05:04:15;;;;;;;2.67;2.40;;;;;;;23.77;64.35;101278.28;5074491;28;20107;-83
2022/09/10 05:06:41;;;;;;;2.70;2.50;;;;;;;23.77;64.27;101286.28;5075970;28;20024;-83
2022/09/10 05:09:06;;;;;;;;;;;;;;;23.91;64.16;101299.69;5075586;28;20031;-84
2022/09/10 05:11:32;;;;;;;2.60;2.33;;;;;;;23.64;64.34;101257.66;5083969;28;19916;-84
2022/09/10 05:13:57;;;;;;;;;;;;;;;23.90;64.29;101290.81;5089663;28;20044;-83
2022/09/10 05:16:23;;;;;;;2.50;2.30;;;;;;;23.87;64.41;101282.75;5082464;28;19924;-83
2022/09/10 05:18:49;;;;;;;;;;;;;;;23.91;64.33;101271.25;5091770;28;20107;-83
2022/09/10 05:21:14;;;;;;;2.58;2.38;;;;;;;23.75;64.71;101245.34;5087967;28;20469;-83
2022/09/10 05:23:40;;;;;;;;;;;;;;;23.90;64.24;101277.47;5092601;28;20493;-85
2022/09/10 05:26:06;;;;;;;2.40;2.20;;;;;;;23.87;64.81;101281.88;5088962;28;20377;-84
2022/09/10 05:28:31;;;;;;;;;;;;;;;23.91;64.77;101281.03;5071964;28;20048;-85
2022/09/10 05:30:57;;;;;;;2.50;2.30;;;;;;;23.77;64.61;101260.50;5074770;28;19916;-83
2022/09/10 05:33:22;;;;;;;;;;;;;;;23.93;64.34;101281.94;5077752;28;20460;-83
2022/09/10 05:35:51;;;;;;;3.47;2.50;;;;;;;23.83;64.36;101275.63;5082802;28;19917;-84
2022/09/10 05:38:17;;;;;;;2.95;2.75;;;;;;;23.88;64.45;101278.34;5077548;28;20032;-84
2022/09/10 05:40:42;;;;;;;;;;;;;;;23.91;64.41;101270.34;5093525;28;20046;-84
2022/09/10 05:43:09;;;;;;;2.80;2.60;;;;;;;23.63;64.28;101234.56;5080310;28;20357;-84
2022/09/10 05:45:34;;;;;;;2.88;2.67;;;;;;;23.88;64.53;101278.34;5078029;28;20036;-84
2022/09/10 05:48:00;;;;;;;;;;;;;;;23.92;64.29;101275.72;5078849;28;20379;-83
2022/09/10 05:50:27;;;;;;;2.55;2.35;;;;;;;23.85;64.58;101262.31;5088828;28;20356;-83
2022/09/10 05:52:53;;;;;;;2.60;2.35;;;;;;;23.89;64.68;101281.00;5090776;28;20155;-85
2022/09/10 05:55:18;;;;;;;;;;;;;;;23.93;64.55;101285.47;5085915;28;20558;-84
2022/09/10 05:57:44;;;;;;;2.97;2.50;;;;;;;23.85;64.45;101278.31;5067572;28;19912;-84
2022/09/10 06:00:09;;;;;;;;;;;;;;;23.93;64.60;101293.47;5076101;28;20031;-84
2022/09/10 06:02:35;;;;;;;2.70;2.50;;;;;;;23.79;64.49;101268.47;5087060;28;20278;-84
2022/09/10 06:05:01;;;;;;;;;;;;;;;23.93;64.59;101284.59;5084993;28;20401;-82
2022/09/10 06:07:27;;;;;;;2.60;2.40;;;;;;;23.90;64.65;101288.16;5091099;28;19916;-84
2022/09/10 06:09:53;;;;;;;2.65;2.45;;;;;;;23.80;64.48;101272.06;5091392;28;20024;-84
2022/09/10 06:12:19;;;;;;;;;;;;;;;23.94;64.63;101292.63;5077393;28;20032;-83
2022/09/10 06:14:48;;;;;;;2.80;2.60;;;;;;;23.91;64.54;101289.91;5075373;28;19916;-84
2022/09/10 06:17:16;;;;;;;2.67;2.47;;;;;;;23.91;64.75;101295.25;5069616;28;20028;-83
2022/09/10 06:19:43;;;;;;;2.60;2.40;;;;;;;23.64;65.11;101255.88;5088613;28;20031;-83
2022/09/10 06:22:09;;;;;;;2.60;2.40;;;;;;;23.50;64.73;101245.13;5092751;28;20036;-83
2022/09/10 06:24:36;;;;;;;2.60;2.40;;;;;;;23.50;64.97;101236.25;5058431;28;20201;-84
2022/09/10 06:27:04;;;;;;;4.32;2.72;;;;;;;23.65;65.55;101276.34;5090217;28;20051;-83
2022/09/10 06:29:29;;;;;;;3.80;2.78;;;;;;;23.20;65.90;101211.09;5078358;28;20032;-83
2022/09/10 06:31:55;;;;;;;;;;;;;;;23.82;65.84;101313.84;5077045;28;20036;-83
2022/09/10 06:34:21;;;;;;;2.83;2.63;;;;;;;23.55;65.63;101262.03;5101182;28;20402;-84
2022/09/10 06:36:46;;;;;;;;;;;;;;;23.76;65.87;101309.34;5077192;28;20035;-83
2022/09/10 06:39:12;;;;;;;2.72;2.53;;;;;;;23.47;65.92;101265.53;5085444;28;19952;-82
2022/09/10 06:41:37;;;;;;;;;;;;;;;23.84;65.66;101300.53;5074015;28;20021;-83
2022/09/10 06:44:03;;;;;;;3.28;2.80;;;;;;;23.80;65.80;101294.28;5085197;28;19974;-83
2022/09/10 06:46:29;;;;;;;;;;;;;;;23.72;66.24;101294.19;5072259;28;20474;-83
2022/09/10 06:48:59;;;;;;;2.60;2.40;;;;;;;23.60;66.22;101278.09;5078298;28;19923;-84
2022/09/10 06:51:25;;;;;;;2.70;2.50;;;;;;;23.68;66.19;101278.13;5078981;28;20032;-85
2022/09/10 06:53:51;;;;;;;3.05;2.63;;;;;;;23.67;66.22;101274.59;5083565;28;20028;-85
2022/09/10 06:56:17;;;;;;;;;;;;;;;23.70;66.26;101284.38;5089532;28;20085;-84
2022/09/10 06:58:43;;;;;;;2.50;2.30;;;;;;;23.62;66.24;101267.41;5091244;28;19923;-84
2022/09/10 07:01:09;;;;;;;;;;;;;;;23.75;65.93;101291.56;5095357;28;20111;-81
2022/09/10 07:03:35;;;;;;;2.63;2.42;;;;;;;23.70;66.33;101282.59;5090522;28;20305;-84
2022/09/10 07:06:09;;;;;;;2.67;2.47;;;;;;;23.64;66.74;101290.53;5097275;28;20450;-83
2022/09/10 07:08:36;;;;;;;2.85;2.65;;;;;;;23.60;66.30;101288.75;5076967;28;20059;-84
2022/09/10 07:11:04;;;;;;;2.75;2.50;;;;;;;23.70;66.15;101305.72;5088164;28;20028;-83
2022/09/10 07:13:31;;;;;;;3.17;2.72;;;;;;;23.54;66.10;101276.25;5087076;28;20024;-83
2022/09/10 07:16:00;;;;;;;3.20;2.90;;;;;;;23.70;66.14;101308.38;5081572;28;20253;-83
2022/09/10 07:18:27;;;;;;;2.80;2.60;;;;;;;23.77;65.99;101311.16;5073877;28;20020;-82
2022/09/10 07:20:54;;;;;;;2.85;2.55;;;;;;;23.73;66.09;101303.97;5082594;28;20012;-84
2022/09/10 07:23:21;;;;;;;2.97;2.67;;;;;;;23.45;66.10;101253.94;5071963;28;20097;-83
2022/09/10 07:25:47;;;;;;;3.85;2.90;;;;;;;23.69;66.47;101306.63;5072391;28;20036;-83
2022/09/10 07:28:16;;;;;;;;;;;;;;;23.78;66.07;101317.38;5081668;28;20028;-83
2022/09/10 07:30:43;;;;;;;2.85;2.58;;;;;;;23.68;66.26;101304.81;5078944;28;19924;-83
2022/09/10 07:33:12;;;;;;;2.80;2.60;;;;;;;23.77;66.17;101332.50;5080858;28;20044;-84
2022/09/10 07:35:38;;;;;;;2.75;2.55;;;;;;;23.76;66.32;101329.81;5077612;28;20020;-83
2022/09/10 07:38:04;;;;;;;;;;;;;;;23.76;66.30;101332.47;5080632;28;20090;-83
2022/09/10 07:40:31;;;;;;;2.78;2.58;;;;;;;23.78;65.88;101320.03;5078529;28;19920;-83
2022/09/10 07:42:58;;;;;;;2.70;2.50;;;;;;;23.58;66.28;101295.84;5090457;28;20497;-85
2022/09/10 07:45:24;;;;;;;2.58;2.38;;;;;;;23.76;66.18;101320.03;5071503;28;20028;-83
2022/09/10 07:47:50;;;;;;;2.63;2.42;;;;;;;23.65;66.11;101303.00;5095985;28;20159;-80
2022/09/10 07:50:15;;;;;;;;;;;;;;;23.81;66.03;101324.50;5093389;28;20541;-83
2022/09/10 07:52:41;;;;;;;2.70;2.50;;;;;;;23.55;66.21;101279.81;5092774;28;20459;-83
2022/09/10 07:55:07;;;;;;;;;;;;;;;23.79;66.29;101303.16;5093691;28;20422;-82
2022/09/10 07:57:36;;;;;;;2.80;2.60;;;;;;;23.82;66.16;101303.19;5108604;28;20521;-81
2022/09/10 08:00:13;;;;;;;3.03;2.75;;;;;;;23.78;66.25;101304.03;5088886;28;20024;-82
2022/09/10 08:02:42;;;;;;;3.13;2.90;;;;;;;23.65;66.49;101288.78;5088140;28;20020;-80
2022/09/10 08:05:09;;;;;;;2.88;2.67;;;;;;;23.82;66.70;101307.63;5081529;28;20415;-81
2022/09/10 08:07:39;;;;;;;2.65;2.45;;;;;;;23.81;66.22;101301.38;5091263;28;20047;-82
2022/09/10 08:10:08;;;;;;;3.10;2.65;;;;;;;23.79;66.45;101292.47;5098086;28;20389;-82
2022/09/10 08:12:38;;;;;;;2.92;2.67;;;;;;;23.82;66.50;101297.84;5091856;28;20028;-82
2022/09/10 08:15:05;;;;;;;2.65;2.45;;;;;;;23.84;66.34;101303.22;5093613;28;20115;-82
2022/09/10 08:17:31;;;;;;;2.95;2.67;;;;;;;23.76;66.38;101292.47;5094755;28;20046;-82
2022/09/10 08:19:57;;;;;;;;;;;;;;;23.82;66.27;101305.84;5095419;28;20024;-82
2022/09/10 08:22:23;;;;;;;2.60;2.40;;;;;;;23.83;66.64;101294.28;5093847;28;20336;-82
2022/09/10 08:24:49;;;;;;;;;;;;;;;23.86;66.47;101298.78;5091730;28;20105;-82
2022/09/10 08:27:24;;;;;;;2.60;2.40;;;;;;;23.71;66.35;101264.84;5092234;28;19915;-81
2022/09/10 08:29:50;;;;;;;2.75;2.55;;;;;;;23.85;66.44;101287.19;5083333;28;20039;-82
2022/09/10 08:32:16;;;;;;;2.80;2.60;;;;;;;23.79;67.47;101279.16;5092103;28;20096;-82
2022/09/10 08:34:41;;;;;;;;;;;;;;;23.88;66.34;101287.25;5090017;28;20043;-81
2022/09/10 08:37:09;;;;;;;2.70;2.50;;;;;;;23.81;66.66;101276.50;5089264;28;20412;-81
2022/09/10 08:39:35;;;;;;;2.85;2.65;;;;;;;23.82;66.42;101279.19;5080775;28;20024;-83
2022/09/10 08:42:20;;;;;;;;;;;;;;;23.90;66.37;101290.81;5081116;28;20137;-83
2022/09/10 08:44:54;;;;;;;2.70;2.50;;;;;;;23.88;66.44;101279.22;5079253;28;19915;-82
2022/09/10 08:47:23;;;;;;;2.75;2.55;;;;;;;23.89;66.50;101278.34;5076909;28;20631;-82
2022/09/10 08:49:57;;;;;;;3.30;2.60;;;;;;;23.91;66.59;101281.91;5074029;28;20024;-83
2022/09/10 08:52:36;;;;;;;2.70;2.50;;;;;;;23.89;66.60;101278.34;5088390;28;20024;-83
2022/09/10 08:55:17;;;;;;;2.40;2.30;;;;;;;23.93;66.39;101274.81;5088062;28;20027;-82
2022/09/10 08:57:49;;;;;;;3.13;2.60;;;;;;;23.94;66.36;101270.41;5086502;28;20177;-81
2022/09/10 09:00:19;;;;;;;2.92;2.72;;;;;;;23.94;66.70;101270.41;5077949;28;20053;-82
2022/09/10 09:03:07;;;;;;;2.70;2.50;;;;;;;23.93;66.88;101272.16;5073471;28;20029;-82
2022/09/10 09:05:43;;;;;;;3.22;2.92;;;;;;;23.94;66.54;101265.06;5078374;28;20035;-81
2022/09/10 09:08:11;;;;;;;3.15;2.80;;;;;;;23.92;66.69;101254.38;5073423;28;20058;-82
2022/09/10 09:10:45;;;;;;;3.45;2.78;;;;;;;23.93;66.67;101257.91;5075529;28;20555;-81
2022/09/10 09:13:39;;;;;;;2.88;2.65;;;;;;;23.93;66.41;101253.47;5070806;28;20024;-82
2022/09/10 09:16:27;;;;;;;2.65;2.45;;;;;;;23.82;66.61;101231.19;5072562;28;20502;-83
2022/09/10 09:19:13;;;;;;;3.08;2.40;;;;;;;23.78;66.47;101224.03;5082266;28;20545;-83
2022/09/10 09:21:53;;;;;;;2.70;2.50;;;;;;;23.91;66.64;101249.00;5079093;28;20027;-83
2022/09/10 09:24:23;;;;;;;2.75;2.55;;;;;;;23.97;66.44;101255.28;5091540;28;20031;-83
2022/09/10 09:26:51;;;;;;;3.03;2.78;;;;;;;23.88;66.46;101228.56;5085248;28;20020;-82
2022/09/10 09:29:26;;;;;;;3.17;2.88;;;;;;;23.89;66.34;101224.09;5084261;28;20040;-82
2022/09/10 09:31:58;;;;;;;2.83;2.53;;;;;;;23.78;66.37;101208.91;5079872;28;20099;-82
2022/09/10 09:34:35;;;;;;;2.80;2.60;;;;;;;23.82;66.40;101217.84;5105991;28;20101;-82
2022/09/10 09:37:03;;;;;;;3.22;2.65;;;;;;;23.86;66.49;101208.09;5090652;28;20024;-82
2022/09/10 09:40:05;;;;;;;2.70;2.50;;;;;;;24.03;66.20;101233.09;5088007;28;20115;-82
2022/09/10 09:42:44;;;;;;;2.72;2.50;;;;;;;24.09;66.29;101221.56;5083478;28;20055;-82
2022/09/10 09:45:39;;;;;;;3.22;2.47;;;;;;;24.06;66.68;101216.19;5084194;28;20386;-82
2022/09/10 09:48:11;;;;;;;2.53;2.33;;;;;;;23.58;66.48;101133.22;5089400;28;20032;-83
2022/09/10 09:50:40;;;;;;;2.88;2.60;;;;;;;23.76;66.61;101164.47;5090068;28;20019;-82
2022/09/10 09:53:06;;;;;;;2.95;2.45;;;;;;;23.90;66.51;101172.56;5084040;28;20036;-82
2022/09/10 09:55:33;;;;;;;;;;;;;;;24.07;66.72;101196.66;5091621;28;20016;-82
2022/09/10 09:58:18;;;;;;;;;;;;;;;24.11;66.61;101195.78;5090408;28;19998;-83
2022/09/10 10:00:43;;;;;;;2.80;2.60;;;;;;;24.10;66.62;101188.66;5083738;28;19916;-82
2022/09/10 10:03:14;;;;;;;;;;;;;;;24.08;66.82;101185.97;5067879;28;20040;-83
2022/09/10 10:05:41;;;;;;;2.60;2.40;;;;;;;24.03;66.63;101163.72;5078743;28;19958;-82
2022/09/10 10:08:36;;;;;;;3.33;2.60;;;;;;;24.09;66.86;101176.22;5088691;28;20031;-82
2022/09/10 10:11:03;;;;;;;2.97;2.60;;;;;;;24.01;67.02;101168.16;5090989;28;20111;-82
2022/09/10 10:13:41;;;;;;;3.67;2.88;;;;;;;24.01;66.85;101167.28;5085805;28;20028;-81
2022/09/10 10:16:20;;;;;;;4.38;2.50;;;;;;;24.01;66.98;101162.81;5084478;28;20031;-82
2022/09/10 10:18:46;;;;;;;3.55;2.70;;;;;;;23.86;66.50;101128.06;5087923;28;20451;-82
2022/09/10 10:21:13;;;;;;;;;;;;;;;24.12;66.63;101170.88;5090427;28;20043;-82
2022/09/10 10:23:39;;;;;;;2.80;2.55;;;;;;;24.13;66.63;101172.66;5086168;28;19922;-83
2022/09/10 10:26:21;;;;;;;;;;;;;;;24.15;66.61;101169.13;5086607;28;20036;-83
2022/09/10 10:28:49;;;;;;;2.90;2.63;;;;;;;24.09;66.78;101168.22;5081677;28;19922;-83
2022/09/10 10:31:15;;;;;;;3.33;2.50;;;;;;;24.14;66.56;101174.44;5084650;28;20034;-82
2022/09/10 10:34:01;;;;;;;;;;;;;;;24.04;66.85;101153.94;5080178;28;20063;-82
2022/09/10 10:36:57;;;;;;;2.78;2.40;;;;;;;24.16;66.98;101167.34;5082747;28;19924;-82
2022/09/10 10:39:49;;;;;;;2.80;2.60;;;;;;;23.86;66.91;101106.75;5082452;28;20039;-82
2022/09/10 10:42:27;;;;;;;3.50;2.63;;;;;;;24.05;66.58;101135.28;5075581;28;20086;-83
2022/09/10 10:45:15;;;;;;;2.72;2.53;;;;;;;24.14;67.08;101151.31;5074379;28;20107;-83
2022/09/10 10:47:53;;;;;;;3.22;2.50;;;;;;;24.17;66.59;101150.44;5080091;28;20512;-84
2022/09/10 10:50:31;;;;;;;3.08;2.55;;;;;;;24.08;66.45;101137.94;5086473;28;20447;-83
2022/09/10 10:53:18;;;;;;;3.13;2.53;;;;;;;24.19;66.67;101162.00;5081580;28;20122;-83
2022/09/10 10:56:11;;;;;;;3.05;2.60;;;;;;;24.23;66.46;101154.91;5089566;28;20085;-83
2022/09/10 10:59:11;;;;;;;2.70;2.50;;;;;;;24.24;66.75;101164.72;5072647;28;20035;-83
2022/09/10 11:01:41;;;;;;;3.38;2.80;;;;;;;23.89;66.72;101118.28;5082947;28;20394;-81
2022/09/10 11:04:27;;;;;;;3.08;2.78;;;;;;;24.23;66.58;101170.91;5085861;28;20020;-81
2022/09/10 11:07:20;;;;;;;3.15;2.60;;;;;;;24.22;66.45;101161.16;5081597;28;20158;-85
2022/09/10 11:09:46;;;;;;;2.80;2.42;;;;;;;24.23;66.61;101166.47;5088990;28;20029;-84
2022/09/10 11:12:14;;;;;;;;;;;;;;;24.24;66.66;101172.72;5081984;28;20078;-83
2022/09/10 11:14:47;;;;;;;2.80;2.50;;;;;;;23.86;66.20;101094.28;5086195;28;19912;-81
2022/09/10 11:17:28;;;;;;;2.60;2.35;;;;;;;23.84;66.43;101096.06;5077255;28;20028;-81
2022/09/10 11:20:09;;;;;;;3.35;2.70;;;;;;;24.13;66.45;101141.53;5083876;28;20489;-82
2022/09/10 11:22:40;;;;;;;2.70;2.50;;;;;;;24.16;66.49;101144.22;5070240;28;20078;-83
2022/09/10 11:25:20;;;;;;;2.60;2.40;;;;;;;24.26;66.79;101149.59;5071589;28;20036;-81
2022/09/10 11:27:50;;;;;;;2.70;2.50;;;;;;;24.10;66.75;101109.50;5084004;28;20089;-83
2022/09/10 11:30:16;;;;;;;4.20;2.70;;;;;;;24.33;66.46;101135.38;5089809;28;20028;-83
2022/09/10 11:32:49;;;;;;;4.65;2.70;;;;;;;24.34;66.53;101130.06;5075786;28;20086;-83
2022/09/10 11:35:35;;;;;;;3.33;2.63;;;;;;;24.39;66.11;101122.94;5088575;28;20024;-83
2022/09/10 11:38:23;;;;;;;3.37;2.83;;;;;;;24.41;66.15;101119.41;5091627;28;20070;-81
2022/09/10 11:41:07;;;;;;;4.18;2.63;;;;;;;24.47;65.91;101122.06;5093536;28;20275;-81
2022/09/10 11:43:33;;;;;;;3.03;2.58;;;;;;;24.46;66.27;101114.94;5093157;28;20507;-82
2022/09/10 11:46:01;;;;;;;;;;;;;;;24.46;65.73;101114.94;5092795;28;20055;-82
2022/09/10 11:48:39;;;;;;;3.40;2.65;;;;;;;24.34;65.65;101090.00;5092161;28;19919;-83
2022/09/10 11:51:30;;;;;;;4.72;2.90;;;;;;;24.47;65.65;101108.69;5092820;28;20541;-83
2022/09/10 11:53:56;;;;;;;3.90;2.75;;;;;;;24.53;65.68;101112.34;5091461;28;20036;-82
2022/09/10 11:56:29;;;;;;;3.47;2.90;;;;;;;24.55;65.52;101104.31;5085874;28;20051;-81